Huvudsida
METAR-TAF:

METAR-TAF

Flygplatser :

Nouméa / La Tontouta, Nya Kaledonien

latitud: 22-01S, longitud: 166-13E, höjd: 16 m

Aktuellt väderrapport

Denna rapport gjordes för 22 minuter sedan, klockan 06:00 UTC
Vind 7 kt från syd/sydväst
Temperatur 22°C
Fuktighet 69%
Tryck 1015 hPa
Sikt 10 km eller mer
Inga moln under 1 500 m eller inga cumulonimbus

METAR: NWWW 220600Z AUTO 20007KT CAVOK 22/16 Q1015 NOSIG

Tid: 17:22 (06:22 UTC)

Väderprognos

Denna rapport gjordes för 1 timme och 22 minuter sedan, klockan 05:00 UTC
Prognos gäller från 22 kl. 06 UTC till 23 kl. 06 UTC
Vind 10 kt från syd
Sikt 10 km eller mer
Få moln på en höjd av 3500 ft
Blir
från 22 kl. 06 UTC till 22 kl. 08 UTC
Vind 2 kt varierande vindriktning
Blir
från 22 kl. 22 UTC till 22 kl. 24 UTC
Vind 10 kt från syd/sydväst

TAF: NWWW 220500Z 2206/2306 18010KT 9999 FEW035 BECMG 2206/2208 VRB02KT BECMG 2222/2224 20010KT

Aktuella väderrapporter och prognoser från 4000 flygplatser (METAR- och TAF-rapporter).

De tillgängliga stationerna syns som gula och röda prickar på kartan.

För musen över prickarna för att se namnen på stationerna.

Klicka sedan för att få väderrapporter och prognoser.

För att ändra kartan: Klicka på de gröna knapparna med ett svart kors på för att zooma in; den gröna knappen med ett streck på för att zooma ut; eller på de gröna pilarna för angränsande kartor.


METAR-TAF: